sensor_id;sensor_type;location;lat;lon;timestamp;P1;durP1;ratioP1;P2;durP2;ratioP2
28613;SDS011;15806;53.548;9.964;2022-09-13T00:00:02;1.20;;;1.10;;
28613;SDS011;15806;53.548;9.964;2022-09-13T00:01:43;1.05;;;0.93;;
28613;SDS011;15806;53.548;9.964;2022-09-13T00:03:24;1.93;;;1.10;;
28613;SDS011;15806;53.548;9.964;2022-09-13T00:05:05;1.93;;;1.00;;
28613;SDS011;15806;53.548;9.964;2022-09-13T00:06:45;3.73;;;1.20;;
28613;SDS011;15806;53.548;9.964;2022-09-13T00:08:26;2.57;;;1.57;;
28613;SDS011;15806;53.548;9.964;2022-09-13T00:10:06;2.67;;;1.30;;
28613;SDS011;15806;53.548;9.964;2022-09-13T00:11:47;2.73;;;1.57;;
28613;SDS011;15806;53.548;9.964;2022-09-13T00:13:28;2.53;;;1.10;;
28613;SDS011;15806;53.548;9.964;2022-09-13T00:15:08;2.53;;;1.20;;
28613;SDS011;15806;53.548;9.964;2022-09-13T00:16:49;1.50;;;1.20;;
28613;SDS011;15806;53.548;9.964;2022-09-13T00:18:30;3.07;;;1.80;;
28613;SDS011;15806;53.548;9.964;2022-09-13T00:20:10;4.70;;;1.63;;
28613;SDS011;15806;53.548;9.964;2022-09-13T00:21:51;1.77;;;1.17;;
28613;SDS011;15806;53.548;9.964;2022-09-13T00:23:31;3.17;;;1.13;;
28613;SDS011;15806;53.548;9.964;2022-09-13T00:25:12;1.90;;;0.87;;
28613;SDS011;15806;53.548;9.964;2022-09-13T00:26:52;2.73;;;1.43;;
28613;SDS011;15806;53.548;9.964;2022-09-13T00:28:33;2.57;;;1.53;;
28613;SDS011;15806;53.548;9.964;2022-09-13T00:30:14;1.75;;;1.20;;
28613;SDS011;15806;53.548;9.964;2022-09-13T00:31:55;2.53;;;1.33;;
28613;SDS011;15806;53.548;9.964;2022-09-13T00:33:35;1.37;;;0.97;;
28613;SDS011;15806;53.548;9.964;2022-09-13T00:35:16;3.08;;;1.42;;
28613;SDS011;15806;53.548;9.964;2022-09-13T00:36:57;8.10;;;1.37;;
28613;SDS011;15806;53.548;9.964;2022-09-13T00:38:38;2.07;;;0.93;;
28613;SDS011;15806;53.548;9.964;2022-09-13T00:40:19;1.75;;;1.40;;
28613;SDS011;15806;53.548;9.964;2022-09-13T00:42:00;3.57;;;1.67;;
28613;SDS011;15806;53.548;9.964;2022-09-13T00:43:45;3.63;;;1.80;;
28613;SDS011;15806;53.548;9.964;2022-09-13T00:45:49;2.30;;;1.55;;
28613;SDS011;15806;53.548;9.964;2022-09-13T00:47:38;4.03;;;1.70;;
28613;SDS011;15806;53.548;9.964;2022-09-13T00:49:23;3.40;;;1.35;;
28613;SDS011;15806;53.548;9.964;2022-09-13T00:51:13;4.50;;;1.13;;
28613;SDS011;15806;53.548;9.964;2022-09-13T00:53:04;2.07;;;1.40;;
28613;SDS011;15806;53.548;9.964;2022-09-13T00:54:58;3.03;;;1.27;;
28613;SDS011;15806;53.548;9.964;2022-09-13T00:56:52;2.67;;;1.45;;
28613;SDS011;15806;53.548;9.964;2022-09-13T00:58:37;2.47;;;1.60;;
28613;SDS011;15806;53.548;9.964;2022-09-13T01:00:21;18.45;;;1.90;;
28613;SDS011;15806;53.548;9.964;2022-09-13T01:02:01;2.73;;;1.37;;
28613;SDS011;15806;53.548;9.964;2022-09-13T01:03:43;3.72;;;1.67;;
28613;SDS011;15806;53.548;9.964;2022-09-13T01:05:27;2.10;;;1.50;;
28613;SDS011;15806;53.548;9.964;2022-09-13T01:07:15;4.15;;;1.80;;
28613;SDS011;15806;53.548;9.964;2022-09-13T01:08:57;3.00;;;1.55;;
28613;SDS011;15806;53.548;9.964;2022-09-13T01:10:41;2.65;;;1.63;;
28613;SDS011;15806;53.548;9.964;2022-09-13T01:12:29;1.30;;;1.02;;
28613;SDS011;15806;53.548;9.964;2022-09-13T01:14:10;3.28;;;1.52;;
28613;SDS011;15806;53.548;9.964;2022-09-13T01:15:52;3.33;;;2.10;;
28613;SDS011;15806;53.548;9.964;2022-09-13T01:17:33;5.17;;;2.57;;
28613;SDS011;15806;53.548;9.964;2022-09-13T01:19:14;4.07;;;1.83;;
28613;SDS011;15806;53.548;9.964;2022-09-13T01:26:49;2.38;;;1.38;;
28613;SDS011;15806;53.548;9.964;2022-09-13T01:29:02;9.15;;;1.77;;
28613;SDS011;15806;53.548;9.964;2022-09-13T01:34:55;6.22;;;2.47;;
28613;SDS011;15806;53.548;9.964;2022-09-13T01:38:53;3.28;;;1.25;;
28613;SDS011;15806;53.548;9.964;2022-09-13T01:44:57;2.08;;;1.33;;
28613;SDS011;15806;53.548;9.964;2022-09-13T01:46:55;3.25;;;2.17;;
28613;SDS011;15806;53.548;9.964;2022-09-13T01:50:59;3.58;;;1.73;;
28613;SDS011;15806;53.548;9.964;2022-09-13T01:52:48;9.35;;;2.00;;
28613;SDS011;15806;53.548;9.964;2022-09-13T01:54:53;2.92;;;1.80;;
28613;SDS011;15806;53.548;9.964;2022-09-13T01:56:44;2.97;;;1.48;;
28613;SDS011;15806;53.548;9.964;2022-09-13T01:58:40;3.13;;;2.00;;
28613;SDS011;15806;53.548;9.964;2022-09-13T02:00:44;2.78;;;1.67;;
28613;SDS011;15806;53.548;9.964;2022-09-13T02:04:59;2.17;;;1.42;;
28613;SDS011;15806;53.548;9.964;2022-09-13T02:06:46;4.50;;;1.42;;
28613;SDS011;15806;53.548;9.964;2022-09-13T02:08:39;2.65;;;1.65;;
28613;SDS011;15806;53.548;9.964;2022-09-13T02:10:24;4.05;;;1.58;;
28613;SDS011;15806;53.548;9.964;2022-09-13T02:12:15;4.53;;;1.30;;
28613;SDS011;15806;53.548;9.964;2022-09-13T02:14:02;4.88;;;1.83;;
28613;SDS011;15806;53.548;9.964;2022-09-13T02:15:57;2.22;;;0.95;;
28613;SDS011;15806;53.548;9.964;2022-09-13T02:17:42;1.88;;;1.20;;
28613;SDS011;15806;53.548;9.964;2022-09-13T02:19:35;5.30;;;1.40;;
28613;SDS011;15806;53.548;9.964;2022-09-13T02:21:26;2.58;;;1.20;;
28613;SDS011;15806;53.548;9.964;2022-09-13T02:23:13;2.42;;;1.35;;
28613;SDS011;15806;53.548;9.964;2022-09-13T02:24:59;3.10;;;1.30;;
28613;SDS011;15806;53.548;9.964;2022-09-13T02:26:48;4.57;;;2.05;;
28613;SDS011;15806;53.548;9.964;2022-09-13T02:28:33;5.03;;;2.25;;
28613;SDS011;15806;53.548;9.964;2022-09-13T02:30:17;2.88;;;1.67;;
28613;SDS011;15806;53.548;9.964;2022-09-13T02:34:33;7.50;;;2.10;;
28613;SDS011;15806;53.548;9.964;2022-09-13T02:36:20;3.08;;;2.10;;
28613;SDS011;15806;53.548;9.964;2022-09-13T02:38:17;5.35;;;2.05;;
28613;SDS011;15806;53.548;9.964;2022-09-13T02:40:09;3.60;;;1.70;;
28613;SDS011;15806;53.548;9.964;2022-09-13T02:43:46;2.10;;;1.33;;
28613;SDS011;15806;53.548;9.964;2022-09-13T02:45:32;2.70;;;1.50;;
28613;SDS011;15806;53.548;9.964;2022-09-13T02:49:13;2.28;;;0.88;;
28613;SDS011;15806;53.548;9.964;2022-09-13T02:51:17;5.85;;;1.85;;
28613;SDS011;15806;53.548;9.964;2022-09-13T02:55:32;4.53;;;1.30;;
28613;SDS011;15806;53.548;9.964;2022-09-13T02:59:18;2.70;;;1.23;;
28613;SDS011;15806;53.548;9.964;2022-09-13T03:01:00;3.83;;;1.63;;
28613;SDS011;15806;53.548;9.964;2022-09-13T03:02:41;1.97;;;1.70;;
28613;SDS011;15806;53.548;9.964;2022-09-13T03:04:25;2.35;;;1.55;;
28613;SDS011;15806;53.548;9.964;2022-09-13T03:06:06;3.28;;;1.27;;
28613;SDS011;15806;53.548;9.964;2022-09-13T03:07:47;6.83;;;2.23;;
28613;SDS011;15806;53.548;9.964;2022-09-13T03:09:29;2.40;;;1.58;;
28613;SDS011;15806;53.548;9.964;2022-09-13T03:19:00;3.67;;;2.22;;
28613;SDS011;15806;53.548;9.964;2022-09-13T03:24:56;4.13;;;2.33;;
28613;SDS011;15806;53.548;9.964;2022-09-13T03:27:02;6.00;;;2.25;;
28613;SDS011;15806;53.548;9.964;2022-09-13T03:29:01;4.37;;;2.40;;
28613;SDS011;15806;53.548;9.964;2022-09-13T03:30:46;4.68;;;2.20;;
28613;SDS011;15806;53.548;9.964;2022-09-13T03:34:41;8.38;;;3.08;;
28613;SDS011;15806;53.548;9.964;2022-09-13T03:36:35;5.68;;;2.97;;
28613;SDS011;15806;53.548;9.964;2022-09-13T03:38:24;5.05;;;2.63;;
28613;SDS011;15806;53.548;9.964;2022-09-13T03:40:22;6.38;;;3.03;;
28613;SDS011;15806;53.548;9.964;2022-09-13T03:42:33;8.18;;;4.30;;
28613;SDS011;15806;53.548;9.964;2022-09-13T03:44:27;4.80;;;2.80;;
28613;SDS011;15806;53.548;9.964;2022-09-13T03:46:31;6.75;;;2.70;;
28613;SDS011;15806;53.548;9.964;2022-09-13T03:48:15;5.95;;;3.03;;
28613;SDS011;15806;53.548;9.964;2022-09-13T03:49:57;4.57;;;2.53;;
28613;SDS011;15806;53.548;9.964;2022-09-13T03:51:38;13.80;;;3.38;;
28613;SDS011;15806;53.548;9.964;2022-09-13T03:53:21;8.55;;;4.57;;
28613;SDS011;15806;53.548;9.964;2022-09-13T03:55:04;7.55;;;3.95;;
28613;SDS011;15806;53.548;9.964;2022-09-13T03:58:46;6.93;;;3.22;;
28613;SDS011;15806;53.548;9.964;2022-09-13T04:00:27;6.82;;;3.47;;
28613;SDS011;15806;53.548;9.964;2022-09-13T04:02:08;8.63;;;3.10;;
28613;SDS011;15806;53.548;9.964;2022-09-13T04:03:49;7.57;;;3.28;;
28613;SDS011;15806;53.548;9.964;2022-09-13T04:05:30;9.13;;;4.23;;
28613;SDS011;15806;53.548;9.964;2022-09-13T04:07:14;6.60;;;3.77;;
28613;SDS011;15806;53.548;9.964;2022-09-13T04:08:59;7.90;;;3.15;;
28613;SDS011;15806;53.548;9.964;2022-09-13T04:10:40;10.43;;;4.07;;
28613;SDS011;15806;53.548;9.964;2022-09-13T04:12:20;11.90;;;4.70;;
28613;SDS011;15806;53.548;9.964;2022-09-13T04:14:01;10.23;;;3.63;;
28613;SDS011;15806;53.548;9.964;2022-09-13T04:15:42;10.90;;;4.13;;
28613;SDS011;15806;53.548;9.964;2022-09-13T04:17:22;8.10;;;4.03;;
28613;SDS011;15806;53.548;9.964;2022-09-13T04:19:03;5.73;;;3.37;;
28613;SDS011;15806;53.548;9.964;2022-09-13T04:20:43;8.07;;;3.80;;
28613;SDS011;15806;53.548;9.964;2022-09-13T04:22:32;7.85;;;3.70;;
28613;SDS011;15806;53.548;9.964;2022-09-13T04:24:12;11.77;;;5.13;;
28613;SDS011;15806;53.548;9.964;2022-09-13T04:25:53;9.83;;;4.03;;
28613;SDS011;15806;53.548;9.964;2022-09-13T04:27:34;8.80;;;4.47;;
28613;SDS011;15806;53.548;9.964;2022-09-13T04:29:14;9.43;;;4.67;;
28613;SDS011;15806;53.548;9.964;2022-09-13T04:30:55;9.50;;;3.93;;
28613;SDS011;15806;53.548;9.964;2022-09-13T04:32:35;9.20;;;3.83;;
28613;SDS011;15806;53.548;9.964;2022-09-13T04:34:16;9.77;;;4.73;;
28613;SDS011;15806;53.548;9.964;2022-09-13T04:35:57;7.97;;;3.37;;
28613;SDS011;15806;53.548;9.964;2022-09-13T04:37:38;14.77;;;4.47;;
28613;SDS011;15806;53.548;9.964;2022-09-13T04:39:19;8.33;;;3.93;;
28613;SDS011;15806;53.548;9.964;2022-09-13T04:40:59;11.38;;;4.53;;
28613;SDS011;15806;53.548;9.964;2022-09-13T04:42:40;10.83;;;4.77;;
28613;SDS011;15806;53.548;9.964;2022-09-13T04:44:23;7.45;;;3.40;;
28613;SDS011;15806;53.548;9.964;2022-09-13T04:46:03;9.13;;;4.90;;
28613;SDS011;15806;53.548;9.964;2022-09-13T04:47:49;7.90;;;3.73;;
28613;SDS011;15806;53.548;9.964;2022-09-13T04:49:30;10.73;;;4.85;;
28613;SDS011;15806;53.548;9.964;2022-09-13T04:51:11;11.33;;;4.20;;
28613;SDS011;15806;53.548;9.964;2022-09-13T04:52:53;10.10;;;3.27;;
28613;SDS011;15806;53.548;9.964;2022-09-13T04:54:33;11.18;;;4.82;;
28613;SDS011;15806;53.548;9.964;2022-09-13T04:56:14;12.87;;;3.87;;
28613;SDS011;15806;53.548;9.964;2022-09-13T04:57:54;8.57;;;4.13;;
28613;SDS011;15806;53.548;9.964;2022-09-13T04:59:35;7.80;;;3.80;;
28613;SDS011;15806;53.548;9.964;2022-09-13T05:01:16;13.13;;;4.80;;
28613;SDS011;15806;53.548;9.964;2022-09-13T05:02:57;10.63;;;4.32;;
28613;SDS011;15806;53.548;9.964;2022-09-13T05:04:37;18.30;;;5.73;;
28613;SDS011;15806;53.548;9.964;2022-09-13T05:06:19;6.70;;;3.70;;
28613;SDS011;15806;53.548;9.964;2022-09-13T05:08:00;11.73;;;4.47;;
28613;SDS011;15806;53.548;9.964;2022-09-13T05:09:41;10.10;;;3.73;;
28613;SDS011;15806;53.548;9.964;2022-09-13T05:11:22;11.37;;;4.97;;
28613;SDS011;15806;53.548;9.964;2022-09-13T05:13:03;9.23;;;4.15;;
28613;SDS011;15806;53.548;9.964;2022-09-13T05:14:44;11.83;;;4.27;;
28613;SDS011;15806;53.548;9.964;2022-09-13T05:16:25;16.00;;;6.17;;
28613;SDS011;15806;53.548;9.964;2022-09-13T05:18:07;8.10;;;4.20;;
28613;SDS011;15806;53.548;9.964;2022-09-13T05:19:48;10.37;;;3.97;;
28613;SDS011;15806;53.548;9.964;2022-09-13T05:21:29;8.87;;;4.60;;
28613;SDS011;15806;53.548;9.964;2022-09-13T05:23:09;18.00;;;6.38;;
28613;SDS011;15806;53.548;9.964;2022-09-13T05:24:50;11.40;;;6.00;;
28613;SDS011;15806;53.548;9.964;2022-09-13T05:26:30;11.30;;;4.63;;
28613;SDS011;15806;53.548;9.964;2022-09-13T05:28:11;9.53;;;3.90;;
28613;SDS011;15806;53.548;9.964;2022-09-13T05:29:52;17.93;;;5.80;;
28613;SDS011;15806;53.548;9.964;2022-09-13T05:31:33;9.90;;;3.87;;
28613;SDS011;15806;53.548;9.964;2022-09-13T05:33:18;12.48;;;4.90;;
28613;SDS011;15806;53.548;9.964;2022-09-13T05:34:59;11.13;;;4.35;;
28613;SDS011;15806;53.548;9.964;2022-09-13T05:36:40;8.53;;;4.67;;
28613;SDS011;15806;53.548;9.964;2022-09-13T05:38:20;12.20;;;4.78;;
28613;SDS011;15806;53.548;9.964;2022-09-13T05:40:02;12.30;;;3.80;;
28613;SDS011;15806;53.548;9.964;2022-09-13T05:41:43;8.25;;;4.00;;
28613;SDS011;15806;53.548;9.964;2022-09-13T05:43:24;14.38;;;6.10;;
28613;SDS011;15806;53.548;9.964;2022-09-13T05:45:06;12.27;;;4.50;;
28613;SDS011;15806;53.548;9.964;2022-09-13T05:46:47;16.83;;;4.90;;
28613;SDS011;15806;53.548;9.964;2022-09-13T05:48:28;8.70;;;4.90;;
28613;SDS011;15806;53.548;9.964;2022-09-13T05:51:50;17.90;;;6.07;;
28613;SDS011;15806;53.548;9.964;2022-09-13T05:53:31;8.73;;;5.13;;
28613;SDS011;15806;53.548;9.964;2022-09-13T05:55:12;10.43;;;5.00;;
28613;SDS011;15806;53.548;9.964;2022-09-13T05:56:53;16.53;;;6.03;;
28613;SDS011;15806;53.548;9.964;2022-09-13T05:58:34;12.50;;;4.90;;
28613;SDS011;15806;53.548;9.964;2022-09-13T06:00:18;10.38;;;4.50;;
28613;SDS011;15806;53.548;9.964;2022-09-13T06:01:58;16.07;;;5.37;;
28613;SDS011;15806;53.548;9.964;2022-09-13T06:03:39;12.00;;;5.33;;
28613;SDS011;15806;53.548;9.964;2022-09-13T06:05:20;16.87;;;5.57;;
28613;SDS011;15806;53.548;9.964;2022-09-13T06:07:01;15.57;;;5.10;;
28613;SDS011;15806;53.548;9.964;2022-09-13T06:08:42;11.45;;;5.43;;
28613;SDS011;15806;53.548;9.964;2022-09-13T06:10:23;14.90;;;5.40;;
28613;SDS011;15806;53.548;9.964;2022-09-13T06:12:03;14.93;;;5.50;;
28613;SDS011;15806;53.548;9.964;2022-09-13T06:13:44;12.93;;;5.97;;
28613;SDS011;15806;53.548;9.964;2022-09-13T06:15:25;13.23;;;5.17;;
28613;SDS011;15806;53.548;9.964;2022-09-13T06:17:06;10.57;;;4.47;;
28613;SDS011;15806;53.548;9.964;2022-09-13T06:18:46;13.95;;;6.07;;
28613;SDS011;15806;53.548;9.964;2022-09-13T06:20:27;16.13;;;5.20;;
28613;SDS011;15806;53.548;9.964;2022-09-13T06:22:07;14.93;;;4.80;;
28613;SDS011;15806;53.548;9.964;2022-09-13T06:23:51;12.80;;;5.30;;
28613;SDS011;15806;53.548;9.964;2022-09-13T06:25:32;15.90;;;6.63;;
28613;SDS011;15806;53.548;9.964;2022-09-13T06:27:13;14.50;;;5.03;;
28613;SDS011;15806;53.548;9.964;2022-09-13T06:28:55;9.88;;;4.93;;
28613;SDS011;15806;53.548;9.964;2022-09-13T06:30:37;11.30;;;5.15;;
28613;SDS011;15806;53.548;9.964;2022-09-13T06:32:18;13.20;;;5.20;;
28613;SDS011;15806;53.548;9.964;2022-09-13T06:33:59;9.67;;;4.53;;
28613;SDS011;15806;53.548;9.964;2022-09-13T06:35:43;13.27;;;5.22;;
28613;SDS011;15806;53.548;9.964;2022-09-13T06:37:23;14.37;;;5.97;;
28613;SDS011;15806;53.548;9.964;2022-09-13T06:39:04;14.53;;;5.33;;
28613;SDS011;15806;53.548;9.964;2022-09-13T06:40:45;10.80;;;4.17;;
28613;SDS011;15806;53.548;9.964;2022-09-13T06:42:25;15.50;;;5.83;;
28613;SDS011;15806;53.548;9.964;2022-09-13T06:44:06;14.43;;;5.27;;
28613;SDS011;15806;53.548;9.964;2022-09-13T06:45:46;14.87;;;6.13;;
28613;SDS011;15806;53.548;9.964;2022-09-13T06:47:27;12.30;;;5.47;;
28613;SDS011;15806;53.548;9.964;2022-09-13T06:49:08;22.50;;;8.07;;
28613;SDS011;15806;53.548;9.964;2022-09-13T06:50:48;18.65;;;11.88;;
28613;SDS011;15806;53.548;9.964;2022-09-13T06:52:29;20.00;;;12.57;;
28613;SDS011;15806;53.548;9.964;2022-09-13T06:54:10;20.90;;;11.13;;
28613;SDS011;15806;53.548;9.964;2022-09-13T06:55:58;14.73;;;5.55;;
28613;SDS011;15806;53.548;9.964;2022-09-13T06:57:43;11.40;;;4.95;;
28613;SDS011;15806;53.548;9.964;2022-09-13T06:59:24;9.50;;;3.73;;
28613;SDS011;15806;53.548;9.964;2022-09-13T07:01:05;10.37;;;3.87;;
28613;SDS011;15806;53.548;9.964;2022-09-13T07:02:49;11.95;;;4.93;;
28613;SDS011;15806;53.548;9.964;2022-09-13T07:04:31;18.17;;;6.43;;
28613;SDS011;15806;53.548;9.964;2022-09-13T07:06:13;14.37;;;4.70;;
28613;SDS011;15806;53.548;9.964;2022-09-13T07:07:55;16.45;;;7.78;;
28613;SDS011;15806;53.548;9.964;2022-09-13T07:09:35;18.47;;;8.87;;
28613;SDS011;15806;53.548;9.964;2022-09-13T07:11:16;18.33;;;8.73;;
28613;SDS011;15806;53.548;9.964;2022-09-13T07:12:59;17.17;;;9.32;;
28613;SDS011;15806;53.548;9.964;2022-09-13T07:14:39;20.40;;;8.10;;
28613;SDS011;15806;53.548;9.964;2022-09-13T07:16:21;17.20;;;8.43;;
28613;SDS011;15806;53.548;9.964;2022-09-13T07:18:07;8.65;;;4.40;;
28613;SDS011;15806;53.548;9.964;2022-09-13T07:19:47;10.87;;;4.53;;
28613;SDS011;15806;53.548;9.964;2022-09-13T07:21:28;10.40;;;4.63;;
28613;SDS011;15806;53.548;9.964;2022-09-13T07:23:08;10.83;;;3.43;;
28613;SDS011;15806;53.548;9.964;2022-09-13T07:24:49;6.33;;;2.70;;
28613;SDS011;15806;53.548;9.964;2022-09-13T07:26:29;10.57;;;3.27;;
28613;SDS011;15806;53.548;9.964;2022-09-13T07:28:10;8.83;;;3.10;;
28613;SDS011;15806;53.548;9.964;2022-09-13T07:29:50;11.50;;;3.87;;
28613;SDS011;15806;53.548;9.964;2022-09-13T07:31:32;8.87;;;3.27;;
28613;SDS011;15806;53.548;9.964;2022-09-13T07:33:15;9.25;;;3.67;;
28613;SDS011;15806;53.548;9.964;2022-09-13T07:34:55;6.43;;;2.13;;
28613;SDS011;15806;53.548;9.964;2022-09-13T07:36:36;5.87;;;1.93;;
28613;SDS011;15806;53.548;9.964;2022-09-13T07:38:16;24.43;;;8.83;;
28613;SDS011;15806;53.548;9.964;2022-09-13T07:39:57;11.87;;;3.60;;
28613;SDS011;15806;53.548;9.964;2022-09-13T07:41:38;10.53;;;4.63;;
28613;SDS011;15806;53.548;9.964;2022-09-13T07:43:19;9.20;;;3.80;;
28613;SDS011;15806;53.548;9.964;2022-09-13T07:44:59;9.63;;;4.17;;
28613;SDS011;15806;53.548;9.964;2022-09-13T07:46:40;2.23;;;0.97;;
28613;SDS011;15806;53.548;9.964;2022-09-13T07:48:20;2.30;;;1.00;;
28613;SDS011;15806;53.548;9.964;2022-09-13T07:50:01;1.90;;;0.90;;
28613;SDS011;15806;53.548;9.964;2022-09-13T07:51:42;3.90;;;0.97;;
28613;SDS011;15806;53.548;9.964;2022-09-13T07:53:23;0.63;;;0.50;;
28613;SDS011;15806;53.548;9.964;2022-09-13T07:55:04;1.77;;;0.83;;
28613;SDS011;15806;53.548;9.964;2022-09-13T07:56:44;20.10;;;4.97;;
28613;SDS011;15806;53.548;9.964;2022-09-13T07:58:25;20.80;;;4.40;;
28613;SDS011;15806;53.548;9.964;2022-09-13T08:00:06;11.17;;;4.50;;
28613;SDS011;15806;53.548;9.964;2022-09-13T08:01:48;13.50;;;5.13;;
28613;SDS011;15806;53.548;9.964;2022-09-13T08:03:30;11.50;;;4.97;;
28613;SDS011;15806;53.548;9.964;2022-09-13T08:05:12;11.20;;;3.90;;
28613;SDS011;15806;53.548;9.964;2022-09-13T08:06:52;13.30;;;4.57;;
28613;SDS011;15806;53.548;9.964;2022-09-13T08:08:33;11.90;;;3.67;;
28613;SDS011;15806;53.548;9.964;2022-09-13T08:10:16;11.00;;;3.25;;
28613;SDS011;15806;53.548;9.964;2022-09-13T08:11:56;8.27;;;3.25;;
28613;SDS011;15806;53.548;9.964;2022-09-13T08:13:37;7.63;;;3.10;;
28613;SDS011;15806;53.548;9.964;2022-09-13T08:15:17;7.37;;;3.47;;
28613;SDS011;15806;53.548;9.964;2022-09-13T08:16:58;13.10;;;3.30;;
28613;SDS011;15806;53.548;9.964;2022-09-13T08:18:45;8.60;;;3.67;;
28613;SDS011;15806;53.548;9.964;2022-09-13T08:20:26;9.13;;;3.08;;
28613;SDS011;15806;53.548;9.964;2022-09-13T08:22:07;6.73;;;3.10;;
28613;SDS011;15806;53.548;9.964;2022-09-13T08:23:47;6.87;;;2.93;;
28613;SDS011;15806;53.548;9.964;2022-09-13T08:25:28;7.37;;;3.00;;
28613;SDS011;15806;53.548;9.964;2022-09-13T08:27:08;7.83;;;2.90;;
28613;SDS011;15806;53.548;9.964;2022-09-13T08:28:53;8.03;;;2.60;;
28613;SDS011;15806;53.548;9.964;2022-09-13T08:30:35;7.43;;;2.63;;
28613;SDS011;15806;53.548;9.964;2022-09-13T08:32:16;6.45;;;2.60;;
28613;SDS011;15806;53.548;9.964;2022-09-13T08:33:57;7.50;;;2.73;;
28613;SDS011;15806;53.548;9.964;2022-09-13T08:35:38;11.43;;;2.97;;
28613;SDS011;15806;53.548;9.964;2022-09-13T08:37:18;7.40;;;2.30;;
28613;SDS011;15806;53.548;9.964;2022-09-13T08:38:59;9.70;;;2.27;;
28613;SDS011;15806;53.548;9.964;2022-09-13T08:40:40;7.97;;;2.00;;
28613;SDS011;15806;53.548;9.964;2022-09-13T08:48:17;2.88;;;0.90;;
28613;SDS011;15806;53.548;9.964;2022-09-13T08:51:53;1.90;;;0.52;;
28613;SDS011;15806;53.548;9.964;2022-09-13T08:53:42;3.60;;;0.77;;
28613;SDS011;15806;53.548;9.964;2022-09-13T08:57:46;3.20;;;1.20;;
28613;SDS011;15806;53.548;9.964;2022-09-13T09:03:34;6.28;;;2.15;;
28613;SDS011;15806;53.548;9.964;2022-09-13T09:05:30;4.50;;;0.50;;
28613;SDS011;15806;53.548;9.964;2022-09-13T09:07:35;1.85;;;0.50;;
28613;SDS011;15806;53.548;9.964;2022-09-13T09:11:02;1.05;;;0.40;;
28613;SDS011;15806;53.548;9.964;2022-09-13T09:12:50;2.20;;;0.55;;
28613;SDS011;15806;53.548;9.964;2022-09-13T09:14:45;4.30;;;0.35;;
28613;SDS011;15806;53.548;9.964;2022-09-13T09:16:38;1.88;;;0.30;;
28613;SDS011;15806;53.548;9.964;2022-09-13T09:20:22;5.50;;;0.80;;
28613;SDS011;15806;53.548;9.964;2022-09-13T09:22:10;3.45;;;0.50;;
28613;SDS011;15806;53.548;9.964;2022-09-13T09:23:56;1.30;;;0.73;;
28613;SDS011;15806;53.548;9.964;2022-09-13T09:27:18;5.00;;;1.05;;
28613;SDS011;15806;53.548;9.964;2022-09-13T09:29:00;1.25;;;0.43;;
28613;SDS011;15806;53.548;9.964;2022-09-13T09:33:07;1.45;;;0.50;;
28613;SDS011;15806;53.548;9.964;2022-09-13T09:37:22;2.15;;;0.70;;
28613;SDS011;15806;53.548;9.964;2022-09-13T09:39:04;3.80;;;1.17;;
28613;SDS011;15806;53.548;9.964;2022-09-13T09:40:49;4.28;;;0.95;;
28613;SDS011;15806;53.548;9.964;2022-09-13T09:42:31;4.10;;;0.82;;
28613;SDS011;15806;53.548;9.964;2022-09-13T09:44:24;4.13;;;0.68;;
28613;SDS011;15806;53.548;9.964;2022-09-13T09:46:07;2.65;;;0.35;;
28613;SDS011;15806;53.548;9.964;2022-09-13T09:47:50;2.35;;;0.60;;
28613;SDS011;15806;53.548;9.964;2022-09-13T09:49:34;3.67;;;0.82;;
28613;SDS011;15806;53.548;9.964;2022-09-13T09:51:22;4.30;;;0.65;;
28613;SDS011;15806;53.548;9.964;2022-09-13T09:53:11;3.58;;;0.70;;
28613;SDS011;15806;53.548;9.964;2022-09-13T09:55:05;4.32;;;1.20;;
28613;SDS011;15806;53.548;9.964;2022-09-13T09:57:07;2.55;;;0.40;;
28613;SDS011;15806;53.548;9.964;2022-09-13T09:58:48;4.47;;;0.53;;
28613;SDS011;15806;53.548;9.964;2022-09-13T10:00:30;5.47;;;0.40;;
28613;SDS011;15806;53.548;9.964;2022-09-13T10:02:14;4.07;;;0.50;;
28613;SDS011;15806;53.548;9.964;2022-09-13T10:05:45;3.72;;;0.50;;
28613;SDS011;15806;53.548;9.964;2022-09-13T10:07:27;5.15;;;0.47;;
28613;SDS011;15806;53.548;9.964;2022-09-13T10:10:56;4.53;;;0.60;;
28613;SDS011;15806;53.548;9.964;2022-09-13T10:12:38;1.45;;;0.43;;
28613;SDS011;15806;53.548;9.964;2022-09-13T10:14:26;2.00;;;0.32;;
28613;SDS011;15806;53.548;9.964;2022-09-13T10:16:23;2.20;;;0.32;;
28613;SDS011;15806;53.548;9.964;2022-09-13T10:18:13;1.40;;;0.30;;
28613;SDS011;15806;53.548;9.964;2022-09-13T10:21:38;5.07;;;0.60;;
28613;SDS011;15806;53.548;9.964;2022-09-13T10:25:14;4.10;;;0.77;;
28613;SDS011;15806;53.548;9.964;2022-09-13T10:27:17;2.85;;;0.80;;
28613;SDS011;15806;53.548;9.964;2022-09-13T10:29:05;2.45;;;0.52;;
28613;SDS011;15806;53.548;9.964;2022-09-13T10:31:03;3.55;;;0.40;;
28613;SDS011;15806;53.548;9.964;2022-09-13T10:32:55;2.88;;;0.50;;
28613;SDS011;15806;53.548;9.964;2022-09-13T10:34:37;4.50;;;0.80;;
28613;SDS011;15806;53.548;9.964;2022-09-13T10:36:18;5.63;;;0.77;;
28613;SDS011;15806;53.548;9.964;2022-09-13T10:38:15;4.55;;;0.60;;
28613;SDS011;15806;53.548;9.964;2022-09-13T10:40:16;2.67;;;1.15;;
28613;SDS011;15806;53.548;9.964;2022-09-13T10:42:06;4.03;;;0.40;;
28613;SDS011;15806;53.548;9.964;2022-09-13T10:43:54;2.33;;;0.40;;
28613;SDS011;15806;53.548;9.964;2022-09-13T10:45:40;4.10;;;0.60;;
28613;SDS011;15806;53.548;9.964;2022-09-13T10:47:22;2.72;;;0.43;;
28613;SDS011;15806;53.548;9.964;2022-09-13T10:49:05;3.95;;;0.57;;
28613;SDS011;15806;53.548;9.964;2022-09-13T10:51:16;2.25;;;0.30;;
28613;SDS011;15806;53.548;9.964;2022-09-13T10:53:37;1.85;;;0.25;;
28613;SDS011;15806;53.548;9.964;2022-09-13T10:57:28;4.03;;;0.85;;
28613;SDS011;15806;53.548;9.964;2022-09-13T11:03:23;3.13;;;0.40;;
28613;SDS011;15806;53.548;9.964;2022-09-13T11:05:25;2.67;;;0.30;;
28613;SDS011;15806;53.548;9.964;2022-09-13T11:07:42;2.08;;;0.30;;
28613;SDS011;15806;53.548;9.964;2022-09-13T11:09:26;4.78;;;0.20;;
28613;SDS011;15806;53.548;9.964;2022-09-13T11:13:30;4.55;;;0.80;;
28613;SDS011;15806;53.548;9.964;2022-09-13T11:15:37;1.88;;;0.50;;
28613;SDS011;15806;53.548;9.964;2022-09-13T11:19:36;2.15;;;0.28;;
28613;SDS011;15806;53.548;9.964;2022-09-13T11:22:07;3.67;;;1.20;;
28613;SDS011;15806;53.548;9.964;2022-09-13T11:24:16;3.53;;;0.40;;
28613;SDS011;15806;53.548;9.964;2022-09-13T11:27:59;1.50;;;0.33;;
28613;SDS011;15806;53.548;9.964;2022-09-13T11:31:47;3.22;;;0.73;;
28613;SDS011;15806;53.548;9.964;2022-09-13T11:41:26;1.52;;;0.30;;
28613;SDS011;15806;53.548;9.964;2022-09-13T11:45:32;3.60;;;0.50;;
28613;SDS011;15806;53.548;9.964;2022-09-13T11:49:41;2.17;;;0.47;;
28613;SDS011;15806;53.548;9.964;2022-09-13T11:55:51;1.25;;;0.32;;
28613;SDS011;15806;53.548;9.964;2022-09-13T11:57:43;3.22;;;0.30;;
28613;SDS011;15806;53.548;9.964;2022-09-13T12:03:38;4.03;;;0.60;;
28613;SDS011;15806;53.548;9.964;2022-09-13T12:05:41;2.53;;;0.65;;
28613;SDS011;15806;53.548;9.964;2022-09-13T12:09:19;1.80;;;0.47;;
28613;SDS011;15806;53.548;9.964;2022-09-13T12:11:03;3.65;;;0.50;;
28613;SDS011;15806;53.548;9.964;2022-09-13T12:12:50;8.52;;;0.55;;
28613;SDS011;15806;53.548;9.964;2022-09-13T12:14:38;4.38;;;0.57;;
28613;SDS011;15806;53.548;9.964;2022-09-13T12:16:34;1.75;;;0.60;;
28613;SDS011;15806;53.548;9.964;2022-09-13T12:18:30;4.70;;;0.47;;
28613;SDS011;15806;53.548;9.964;2022-09-13T12:20:26;2.95;;;0.40;;
28613;SDS011;15806;53.548;9.964;2022-09-13T12:22:14;2.33;;;0.50;;
28613;SDS011;15806;53.548;9.964;2022-09-13T12:23:59;2.47;;;0.73;;
28613;SDS011;15806;53.548;9.964;2022-09-13T12:26:04;1.38;;;0.60;;
28613;SDS011;15806;53.548;9.964;2022-09-13T12:28:10;3.72;;;0.60;;